1
2
3
4
5
6
7
8
9
10
11
12
13
14
15
16
17
18
19
20
21
22
23
24
25
26
27
28
29
30
31
32
33
34
35
36
37
38
39
40
41
42
43
44
45
46
47
48
49
50
51
52
53
54
55
56
57
58
59
60
61
62
63
64
65
66
67
68
69
70
71
72
73
74
75
76
77
78
79
80
81
82
83
84
85
86
87
88
89
90
91
92
93
94
95
96
97
98
99
100
101
102
103
104
105
106
107
108
109
110
111
112
113
114
115
116
117
118
119
120
121
122
123
124
125
126
127
128
129
130
131
132
133
134
135
136
137
138
139
140
141
142
143
144
145
146
147
148
149
150
151
152
153
154
155
156
157
158
159
160
161
162
163
164
165
166
167
168
169
170
171
172
173
174
175
176
177
178
179
180
181
182
183
184
185
186
187
188
189
190
191
192
193
194
195
196
Last login: Tue Oct  6 12:32:04 on ttys000
jer-thorps-computer:~ jerthorp$ ssh root@10.10.10.10
root@10.10.10.10's password: 
Poky Linux 3.1 on BUG
root@bug:~# killall cat
root@bug:~# cat /home/root/gpslog.log
$GPGSV,3,3,12,16,00,000,,28,00,000,,26,00,000,,29,00,000,*78
$GPRMC,002350.044,V,,,,,,,291006,,*27
$GPVTG,,T,,M,,N,,K*4E
$GPGGA,002351.039,,,,,0,00,,,M,0.0,M,,0000*59
$GPGLL,,,,,002351.039,V*17
$GPGSA,A,1,,,,,,,,,,,,,,,*1E
$GPGSV,3,1,12,20,00,000,,10,00,000,,31,00,000,,27,00,000,*7C
$GPGSV,3,2,12,19,00,000,,07,00,000,,04,00,000,,24,00,000,*76
$GPGSV,3,3,12,16,00,000,,28,00,000,,26,00,000,,29,00,000,*78
$GPRMC,002351.039,V,,,,,,,291006,,*2C
$GPVTG,,T,,M,,N,,K*4E
$GPGGA,002352.039,,,,,0,00,,,M,0.0,M,,0000*5A
$GPGLL,,,,,002352.039,V*14
$GPGSA,A,1,,,,,,,,,,,,,,,*1E
$GPGSV,3,1,12,20,00,000,,10,00,000,,31,00,000,,27,00,000,*7C
$GPGSV,3,2,12,19,00,000,,07,00,000,,04,00,000,,24,00,000,*76
$GPGSV,3,3,12,16,00,000,,28,00,000,,26,00,000,,29,00,000,*78
$GPRMC,002352.039,V,,,,,,,291006,,*2F
$GPVTG,,T,,M,,N,,K*4E
$GPGGA,002353.043,,,,,0,00,,,M,0.0,M,,0000*56
$GPGLL,,,,,002353.043,V*18
$GPGSA,A,1,,,,,,,,,,,,,,,*1E
$GPGSV,3,1,12,20,00,000,,10,00,000,,31,00,000,,27,00,000,*7C
$GPGSV,3,2,12,19,00,000,,07,00,000,,04,00,000,,24,00,000,*76
$GPGSV,3,3,12,16,00,000,,28,00,000,,26,00,000,,29,00,000,*78
$GPRMC,002353.043,V,,,,,,,291006,,*23
$GPVTG,,T,,M,,N,,K*4E
$GPGGA,002354.042,,,,,0,00,,,M,0.0,M,,0000*50
$GPGLL,,,,,002354.042,V*1E
$GPGSA,A,1,,,,,,,,,,,,,,,*1E
$GPGSV,3,1,12,20,00,000,,10,00,000,,31,00,000,,27,00,000,*7C
$GPGSV,3,2,12,19,00,000,,07,00,000,,04,00,000,,24,00,000,*76
$GPGSV,3,3,12,16,00,000,,28,00,000,,26,00,000,,29,00,000,*78
$GPRMC,002354.042,V,,,,,,,291006,,*25
$GPVTG,,T,,M,,N,,K*4E
$GPGGA,002355.041,,,,,0,00,,,M,0.0,M,,0000*52
$GPGLL,,,,,002355.041,V*1C
$GPGSA,A,1,,,,,,,,,,,,,,,*1E
$GPGSV,3,1,12,20,00,000,,10,00,000,,31,00,000,,27,00,000,*7C
$GPGSV,3,2,12,19,00,000,,07,00,000,,04,00,000,,24,00,000,*76
$GPGSV,3,3,12,16,00,000,,28,00,000,,26,00,000,,29,00,000,*78
$GPRMC,002355.041,V,,,,,,,291006,,*27
$GPVTG,,T,,M,,N,,K*4E
$GPGGA,002356.044,,,,,0,00,,,M,0.0,M,,0000*54
$GPGLL,,,,,002356.044,V*1A
$GPGSA,A,1,,,,,,,,,,,,,,,*1E
$GPGSV,3,1,12,20,00,000,,10,00,000,,31,00,000,,27,00,000,*7C
$GPGSV,3,2,12,19,00,000,,07,00,000,,04,00,000,,24,00,000,*76
$GPGSV,3,3,12,16,00,000,,28,00,000,,26,00,000,,29,00,000,*78
$GPRMC,002356.044,V,,,,,,,291006,,*21
$GPVTG,,T,,M,,N,,K*4E
$GPGGA,002357.036,,,,,0,00,,,M,0.0,M,,0000*50
$GPGLL,,,,,002357.036,V*1E
$GPGSA,A,1,,,,,,,,,,,,,,,*1E
$GPGSV,3,1,12,20,00,000,,10,00,000,,31,00,000,,27,00,000,*7C
$GPGSV,3,2,12,19,00,000,,07,00,000,,04,00,000,,24,00,000,*76
$GPGSV,3,3,12,16,00,000,,28,00,000,,26,00,000,,29,00,000,*78
$GPRMC,002357.036,V,,,,,,,291006,,*25
$GPVTG,,T,,M,,N,,K*4E
$GPGGA,002358.039,,,,,0,00,,,M,0.0,M,,0000*50
$GPGLL,,,,,002358.039,V*1E
$GPGSA,A,1,,,,,,,,,,,,,,,*1E
$GPGSV,3,1,12,20,00,000,,10,00,000,,31,00,000,,27,00,000,*7C
$GPGSV,3,2,12,19,00,000,,07,00,000,,04,00,000,,24,00,000,*76
$GPGSV,3,3,12,16,00,000,,28,00,000,,26,00,000,,29,00,000,*78
$GPRMC,002358.039,V,,,,,,,291006,,*25
$GPVTG,,T,,M,,N,,K*4E
$GPGGA,002359.048,,,,,0,00,,,M,0.0,M,,0000*57
$GPGLL,,,,,002359.048,V*19
$GPGSA,A,1,,,,,,,,,,,,,,,*1E
$GPGSV,3,1,12,20,00,000,,10,00,000,,31,00,000,,27,00,000,*7C
$GPGSV,3,2,12,19,00,000,,07,00,000,,04,00,000,,24,00,000,*76
$GPGSV,3,3,12,16,00,000,,28,00,000,,26,00,000,,29,00,000,*78
$GPRMC,002359.048,V,,,,,,,291006,,*22
$GPVTG,,T,,M,,N,,K*4E
$GPGGA,002400.036,,,,,0,00,,,M,0.0,M,,0000*55
$GPGLL,,,,,002400.036,V*1B
$GPGSA,A,1,,,,,,,,,,,,,,,*1E
$GPGSV,3,1,12,20,00,000,,10,00,000,,31,00,000,,27,00,000,*7C
$GPGSV,3,2,12,19,00,000,,07,00,000,,04,00,000,,24,00,000,*76
$GPGSV,3,3,12,16,00,000,,28,00,000,,26,00,000,,29,00,000,*78
$GPRMC,002400.036,V,,,,,,,291006,,*20
$GPVTG,,T,,M,,N,,K*4E
$GPGGA,002401.036,,,,,0,00,,,M,0.0,M,,0000*54
$GPGLL,,,,,002401.036,V*1A
$GPGSA,A,1,,,,,,,,,,,,,,,*1E
$GPGSV,3,1,12,20,00,000,,10,00,000,,31,00,000,,27,00,000,*7C
$GPGSV,3,2,12,19,00,000,,07,00,000,,04,00,000,,24,00,000,*76
$GPGSV,3,3,12,16,00,000,,28,00,000,,26,00,000,,29,00,000,*78
$GPRMC,002401.036,V,,,,,,,291006,,*21
$GPVTG,,T,,M,,N,,K*4E
$GPGGA,002402.041,,,,,0,00,,,M,0.0,M,,0000*57
$GPGLL,,,,,002402.041,V*19
$GPGSA,A,1,,,,,,,,,,,,,,,*1E
$GPGSV,3,1,12,20,00,000,,10,00,000,,31,00,000,,27,00,000,*7C
$GPGSV,3,2,12,19,00,000,,07,00,000,,04,00,000,,24,00,000,*76
$GPGSV,3,3,12,16,00,000,,28,00,000,,26,00,000,,29,00,000,*78
$GPRMC,002402.041,V,,,,,,,291006,,*22
$GPVTG,,T,,M,,N,,K*4E
$GPGGA,002403.039,,,,,0,00,,,M,0.0,M,,0000*59
$GPGLL,,,,,002403.039,V*17
$GPGSA,A,1,,,,,,,,,,,,,,,*1E
$GPGSV,3,1,12,20,00,000,,10,00,000,,31,00,000,,27,00,000,*7C
$GPGSV,3,2,12,19,00,000,,07,00,000,,04,00,000,,24,00,000,*76
$GPGSV,3,3,12,16,00,000,,28,00,000,,26,00,000,,29,00,000,*78
$GPRMC,002403.039,V,,,,,,,291006,,*2C
$GPVTG,,T,,M,,N,,K*4E
$GPGGA,002404.039,,,,,0,00,,,M,0.0,M,,0000*5E
$GPGLL,,,,,002404.039,V*10
$GPGSA,A,1,,,,,,,,,,,,,,,*1E
$GPGSV,3,1,12,20,00,000,,10,00,000,,31,00,000,,27,00,000,*7C
$GPGSV,3,2,12,19,00,000,,07,00,000,,04,00,000,,24,00,000,*76
$GPGSV,3,3,12,16,00,000,,28,00,000,,26,00,000,,29,00,000,*78
$GPRMC,002404.039,V,,,,,,,291006,,*2B
$GPVTG,,T,,M,,N,,K*4E
$GPGGA,002405.041,,,,,0,00,,,M,0.0,M,,0000*50
$GPGLL,,,,,002405.041,V*1E
$GPGSA,A,1,,,,,,,,,,,,,,,*1E
$GPGSV,3,1,12,20,00,000,,10,00,000,,31,00,000,,27,00,000,*7C
$GPGSV,3,2,12,19,00,000,,07,00,000,,04,00,000,,24,00,000,*76
$GPGSV,3,3,12,16,00,000,,28,00,000,,26,00,000,,29,00,000,*78
$GPRMC,002405.041,V,,,,,,,291006,,*25
$GPVTG,,T,,M,,N,,K*4E
$GPGGA,002406.036,,,,,0,00,,,M,0.0,M,,0000*53
$GPGLL,,,,,002406.036,V*1D
$GPGSA,A,1,,,,,,,,,,,,,,,*1E
$GPGSV,3,1,12,20,00,000,,10,00,000,,31,00,000,,27,00,000,*7C
$GPGSV,3,2,12,19,00,000,,07,00,000,,04,00,000,,24,00,000,*76
$GPGSV,3,3,12,16,00,000,,28,00,000,,26,00,000,,29,00,000,*78
$GPRMC,002406.036,V,,,,,,,291006,,*26
$GPVTG,,T,,M,,N,,K*4E
$GPGGA,002407.036,,,,,0,00,,,M,0.0,M,,0000*52
$GPGLL,,,,,002407.036,V*1C
$GPGSA,A,1,,,,,,,,,,,,,,,*1E
$GPGSV,3,1,12,20,00,000,,10,00,000,,31,00,000,,27,00,000,*7C
$GPGSV,3,2,12,19,00,000,,07,00,000,,04,00,000,,24,00,000,*76
$GPGSV,3,3,12,16,00,000,,28,00,000,,26,00,000,,29,00,000,*78
$GPRMC,002407.036,V,,,,,,,291006,,*27
$GPVTG,,T,,M,,N,,K*4E
$GPGGA,002408.044,,,,,0,00,,,M,0.0,M,,0000*58
$GPGLL,,,,,002408.044,V*16
$GPGSA,A,1,,,,,,,,,,,,,,,*1E
$GPGSV,3,1,12,20,00,000,,10,00,000,,31,00,000,,27,00,000,*7C
$GPGSV,3,2,12,19,00,000,,07,00,000,,04,00,000,,24,00,000,*76
$GPGSV,3,3,12,16,00,000,,28,00,000,,26,00,000,,29,00,000,*78
$GPRMC,002408.044,V,,,,,,,291006,,*2D
$GPVTG,,T,,M,,N,,K*4E
$GPGGA,002409.041,,,,,0,00,,,M,0.0,M,,0000*5C
$GPGLL,,,,,002409.041,V*12
$GPGSA,A,1,,,,,,,,,,,,,,,*1E
$GPGSV,3,1,12,20,00,000,,10,00,000,,31,00,000,,27,00,000,*7C
$GPGSV,3,2,12,19,00,000,,07,00,000,,04,00,000,,24,00,000,*76
$GPGSV,3,3,12,16,00,000,,28,00,000,,26,00,000,,29,00,000,*78
$GPRMC,002409.041,V,,,,,,,291006,,*29
$GPVTG,,T,,M,,N,,K*4E
$GPGGA,002410.036,,,,,0,00,,,M,0.0,M,,0000*54
$GPGLL,,,,,002410.036,V*1A
$GPGSA,A,1,,,,,,,,,,,,,,,*1E
$GPGSV,3,1,12,20,00,000,,10,00,000,,31,00,000,,27,00,000,*7C
$GPGSV,3,2,12,19,00,000,,07,00,000,,04,00,000,,24,00,000,*76
$GPGSV,3,3,12,16,00,000,,28,00,000,,26,00,000,,29,00,000,*78
$GPRMC,002410.036,V,,,,,,,291006,,*21
$GPVTG,,T,,M,,N,,K*4E
$GPGGA,002411.041,,,,,0,00,,,M,0.0,M,,0000*55
$GPGLL,,,,,002411.041,V*1B
$GPGSA,A,1,,,,,,,,,,,,,,,*1E
$GPGSV,3,1,12,20,00,000,,10,00,000,,31,00,000,,27,00,000,*7C
$GPGSV,3,2,12,19,00,000,,07,00,000,,04,00,000,,24,00,000,*76
$GPGSV,3,3,12,16,00,000,,28,00,000,,26,00,000,,29,00,000,*78
$GPRMC,002411.041,V,,,,,,,291006,,*20
$GPVTG,,T,,M,,N,,K*4E
$GPGGA,002412.041,,,,,0,00,,,M,0.0,M,,0000*56
$GPGLL,,,,,002412.041,V*18
$GPGSA,A,1,,,,,,,,,,,,,,,*1E
$GPGSV,3,1,12,20,00,000,,10,00,000,,31,00,000,,27,00,000,*7C
$GPGSV,3,2,12,19,00,000,,07,00,000,,04,00,000,,24,00,000,*76
$GPGSV,3,3,12,16,00,000,,28,00,000,,26,00,000,,29,00,000,*78
$GPRMC,002412.041,V,,,,,,,291006,,*23
$GPVTG,,T,,M,,N,,K*4E
$GPGGA,002413.039,,,,,0,00,,,M,0.0,M,,0000*58
$GPGLL,,,,,002413.039,V*16
$GPGSA,A,1,,,,,,,,,,,,,,,*1E
$GPGSV,3,1,12,20,00,000,,10,00,000,,31,00,000,,27,00,000,*7C
$GPGSV,3,2,12,19,00,000,,07,00,000,,04,00,000,,24,00,000,*76
$GPGSV,3,3,12,16,00,000,,28,00,000,,26,00,000,,29,00,000,*78
$GPRMC,002413.039,V,,,,,,,291006,,*2D
$GPVTG,,T,,M,,N,,K*4E
$GPGGA,002414.044,,,,,0,00,,,M,0.0,M,,0000*55
$GPGLL,,,,,002414.044,V*1B
$GPGSA,A,1,,,,,,,,,,,,,,,*1E